Time;durP1;ratioP1;P1;durP2;ratioP2;P2;SDS_P1;SDS_P2;PMS_P1;PMS_P2;Temp;Humidity;BMP_temperature;BMP_pressure;BME280_temperature;BME280_humidity;BME280_pressure;Samples;Min_cycle;Max_cycle;Signal;HPM_P1;HPM_P2
2021/08/01 00:00:07;;;;;;;4.22;3.30;;;;;;;-140.79;100.00;63287.88;4948387;28;20057;-72
2021/08/01 00:02:32;;;;;;;5.72;3.30;;;;;;;-140.79;100.00;63287.88;4965006;28;20041;-72
2021/08/01 00:04:58;;;;;;;6.72;3.45;;;;;;;-140.79;100.00;63287.88;4967208;28;20433;-72
2021/08/01 00:07:23;;;;;;;6.65;3.80;;;;;;;-140.79;100.00;63287.88;4966790;28;20026;-72
2021/08/01 00:09:49;;;;;;;5.10;3.22;;;;;;;-140.79;100.00;63287.88;4950777;28;20027;-71
2021/08/01 00:12:15;;;;;;;6.97;3.80;;;;;;;-140.79;100.00;63287.88;4967274;28;20023;-71
2021/08/01 00:14:41;;;;;;;5.97;3.70;;;;;;;-140.79;100.00;63287.88;4968145;28;20519;-72
2021/08/01 00:17:06;;;;;;;6.18;3.58;;;;;;;-140.79;100.00;63287.88;4966013;28;20039;-72
2021/08/01 00:19:32;;;;;;;5.68;3.50;;;;;;;-140.79;100.00;63287.88;4966607;28;20025;-72
2021/08/01 00:21:57;;;;;;;8.05;4.22;;;;;;;-140.79;100.00;63287.88;4965914;28;20477;-72
2021/08/01 00:24:22;;;;;;;6.18;3.75;;;;;;;-140.79;100.00;63287.88;4950266;28;20482;-72
2021/08/01 00:26:48;;;;;;;6.35;4.18;;;;;;;-140.79;100.00;63287.88;4965986;28;20335;-72
2021/08/01 00:29:13;;;;;;;9.70;3.80;;;;;;;-140.79;100.00;63287.88;4967482;28;20025;-72
2021/08/01 00:31:39;;;;;;;8.00;4.25;;;;;;;-140.79;100.00;63287.88;4966820;28;20448;-72
2021/08/01 00:34:04;;;;;;;7.70;3.95;;;;;;;-140.79;100.00;63287.88;4967653;28;20031;-72
2021/08/01 00:36:30;;;;;;;6.50;4.13;;;;;;;-140.79;100.00;63287.88;4963651;28;20455;-72
2021/08/01 00:38:55;;;;;;;6.40;4.28;;;;;;;-140.79;100.00;63287.88;4930848;29;20038;-72
2021/08/01 00:41:21;;;;;;;6.20;4.25;;;;;;;-140.79;100.00;63287.88;4913760;28;20030;-72
2021/08/01 00:43:46;;;;;;;5.82;4.15;;;;;;;-140.79;100.00;63287.88;4963758;28;20516;-72
2021/08/01 00:46:12;;;;;;;6.90;3.90;;;;;;;-140.79;100.00;63287.88;4966574;28;20469;-71
2021/08/01 00:48:38;;;;;;;9.18;5.07;;;;;;;-140.79;100.00;63287.88;4933073;28;20023;-72
2021/08/01 00:51:04;;;;;;;8.25;5.50;;;;;;;-140.79;100.00;63287.88;4933988;28;20018;-72
2021/08/01 00:53:29;;;;;;;9.68;6.43;;;;;;;-140.79;100.00;63287.88;4933952;28;20026;-72
2021/08/01 00:55:55;;;;;;;11.40;6.28;;;;;;;-140.79;100.00;63287.88;4966389;28;20030;-72
2021/08/01 00:58:20;;;;;;;10.40;6.63;;;;;;;-140.79;100.00;63287.88;4934804;29;20027;-72
2021/08/01 01:01:07;;;;;;;11.77;6.88;;;;;;;-140.79;100.00;63287.88;4951225;28;20435;-72
2021/08/01 01:03:38;;;;;;;18.92;8.00;;;;;;;-140.79;100.00;63287.88;4966731;28;20461;-71
2021/08/01 01:06:10;;;;;;;14.02;8.70;;;;;;;-140.79;100.00;63287.88;4970526;28;20518;-72
2021/08/01 01:09:04;;;;;;;12.27;8.38;;;;;;;-140.79;100.00;63287.88;4953462;28;20488;-72
2021/08/01 01:11:39;;;;;;;14.45;7.82;;;;;;;-140.79;100.00;63287.88;4953607;28;20043;-72
2021/08/01 01:14:19;;;;;;;14.60;7.90;;;;;;;-140.79;100.00;63287.88;4953844;28;20027;-72
2021/08/01 01:16:46;;;;;;;11.48;7.43;;;;;;;-140.79;100.00;63287.88;4937151;28;20038;-72
2021/08/01 01:19:17;;;;;;;16.98;8.93;;;;;;;-140.79;100.00;63287.88;4937718;28;20177;-72
2021/08/01 01:21:58;;;;;;;16.80;8.73;;;;;;;-140.79;100.00;63287.88;4951874;28;20125;-72
2021/08/01 01:24:25;;;;;;;15.68;8.23;;;;;;;-140.79;100.00;63287.88;4953337;28;20121;-72
2021/08/01 01:27:07;;;;;;;13.02;7.45;;;;;;;-140.79;100.00;63287.88;4952605;28;20089;-73
2021/08/01 01:29:39;;;;;;;11.80;7.20;;;;;;;-140.79;100.00;63287.88;4953487;28;20383;-72
2021/08/01 01:32:10;;;;;;;10.50;7.50;;;;;;;-140.79;100.00;63287.88;4968796;28;20058;-72
2021/08/01 01:35:10;;;;;;;13.18;7.22;;;;;;;-140.79;100.00;63287.88;4970121;28;20093;-72
2021/08/01 01:37:36;;;;;;;;;;;;;;;-140.79;100.00;63287.88;4922076;28;20481;-72
2021/08/01 01:40:01;;;;;;;13.93;8.27;;;;;;;-140.79;100.00;63287.88;4970823;28;19965;-72
2021/08/01 01:42:27;;;;;;;14.50;8.27;;;;;;;-140.79;100.00;63287.88;4970553;28;20288;-71
2021/08/01 01:44:52;;;;;;;16.13;8.60;;;;;;;-140.79;100.00;63287.88;4950581;28;20022;-71
2021/08/01 01:47:18;;;;;;;16.02;8.02;;;;;;;-140.79;100.00;63287.88;4936745;28;20018;-72
2021/08/01 01:49:43;;;;;;;12.85;7.75;;;;;;;-140.79;100.00;63287.88;4935682;28;20034;-72
2021/08/01 01:52:10;;;;;;;12.60;8.30;;;;;;;-140.79;100.00;63287.88;4953178;28;20037;-71
2021/08/01 01:54:36;;;;;;;12.90;7.40;;;;;;;-140.79;100.00;63287.88;4969329;28;20109;-72
2021/08/01 01:57:01;;;;;;;13.95;8.25;;;;;;;-140.79;100.00;63287.88;4936009;28;20505;-72
2021/08/01 01:59:27;;;;;;;14.05;7.50;;;;;;;-140.79;100.00;63287.88;4952773;28;20039;-72
2021/08/01 02:01:52;;;;;;;11.15;6.90;;;;;;;-140.79;100.00;63287.88;4951557;28;20086;-71
2021/08/01 02:04:17;;;;;;;11.05;7.50;;;;;;;-140.79;100.00;63287.88;4968051;28;20109;-72
2021/08/01 02:06:43;;;;;;;11.90;7.38;;;;;;;-140.79;100.00;63287.88;4969788;28;20093;-72
2021/08/01 02:09:23;;;;;;;13.02;7.60;;;;;;;-140.79;100.00;63287.88;4969347;28;20152;-72
2021/08/01 02:11:59;;;;;;;12.07;7.68;;;;;;;-140.79;100.00;63287.88;4968924;28;20062;-71
2021/08/01 02:14:35;;;;;;;13.25;7.35;;;;;;;-140.79;100.00;63287.88;4951639;28;20029;-72
2021/08/01 02:17:08;;;;;;;14.35;7.50;;;;;;;-140.79;100.00;63287.88;4951290;28;20940;-71
2021/08/01 02:19:34;;;;;;;11.55;7.10;;;;;;;-140.79;100.00;63287.88;4936494;28;20097;-72
2021/08/01 02:22:00;;;;;;;13.85;8.38;;;;;;;-140.79;100.00;63287.88;4949956;28;20035;-72
2021/08/01 02:24:26;;;;;;;15.65;7.53;;;;;;;-140.79;100.00;63287.88;4968497;28;20027;-71
2021/08/01 02:26:51;;;;;;;14.35;8.05;;;;;;;-140.79;100.00;63287.88;4967636;28;20469;-72
2021/08/01 02:29:17;;;;;;;11.48;7.32;;;;;;;-140.79;100.00;63287.88;4969434;28;20537;-72
2021/08/01 02:31:42;;;;;;;12.35;7.28;;;;;;;-140.79;100.00;63287.88;4967152;28;20086;-72
2021/08/01 02:34:08;;;;;;;9.45;7.00;;;;;;;-140.79;100.00;63287.88;4952238;28;20049;-72
2021/08/01 02:36:33;;;;;;;10.90;6.72;;;;;;;-140.79;100.00;63287.88;4968536;28;20115;-72
2021/08/01 02:38:59;;;;;;;11.32;7.07;;;;;;;-140.79;100.00;63287.88;4951953;28;20097;-72
2021/08/01 02:41:28;;;;;;;9.73;7.03;;;;;;;-140.79;100.00;63287.88;4969391;28;20026;-72
2021/08/01 02:43:53;;;;;;;10.23;6.68;;;;;;;-140.79;100.00;63287.88;4967580;28;20060;-72
2021/08/01 02:46:20;;;;;;;11.93;7.82;;;;;;;-140.79;100.00;63287.88;4967495;28;20031;-72
2021/08/01 02:48:45;;;;;;;16.75;8.70;;;;;;;-140.79;100.00;63287.88;4935054;28;20090;-71
2021/08/01 02:51:11;;;;;;;11.95;7.75;;;;;;;-140.79;100.00;63287.88;4950729;28;20046;-71
2021/08/01 02:53:39;;;;;;;14.48;7.82;;;;;;;-140.79;100.00;63287.88;4968921;28;20158;-72
2021/08/01 02:56:04;;;;;;;11.13;7.63;;;;;;;-140.79;100.00;63287.88;4950076;28;20027;-72
2021/08/01 02:58:30;;;;;;;13.45;7.53;;;;;;;-140.79;100.00;63287.88;4949744;28;20092;-71
2021/08/01 03:00:56;;;;;;;12.63;7.50;;;;;;;-140.79;100.00;63287.88;4966728;28;20037;-72
2021/08/01 03:03:21;;;;;;;10.13;7.05;;;;;;;-140.79;100.00;63287.88;4950818;28;20070;-71
2021/08/01 03:05:47;;;;;;;11.77;7.90;;;;;;;-140.79;100.00;63287.88;4950384;28;20494;-71
2021/08/01 03:08:15;;;;;;;12.52;7.82;;;;;;;-140.79;100.00;63287.88;4964496;28;20478;-71
2021/08/01 03:10:48;;;;;;;13.13;7.75;;;;;;;-140.79;100.00;63287.88;4947734;28;20421;-71
2021/08/01 03:13:13;;;;;;;11.65;6.95;;;;;;;-140.79;100.00;63287.88;4964460;28;20108;-71
2021/08/01 03:15:39;;;;;;;13.02;8.18;;;;;;;-140.79;100.00;63287.88;4960531;28;20023;-71
2021/08/01 03:18:04;;;;;;;17.98;9.02;;;;;;;-140.79;100.00;63287.88;4964162;28;20038;-72
2021/08/01 03:20:30;;;;;;;12.48;7.97;;;;;;;-140.79;100.00;63287.88;4963683;28;20037;-72
2021/08/01 03:22:55;;;;;;;14.45;8.75;;;;;;;-140.79;100.00;63287.88;4966694;28;20093;-72
2021/08/01 03:25:21;;;;;;;16.35;9.02;;;;;;;-140.79;100.00;63287.88;4967042;28;20046;-71
2021/08/01 03:27:46;;;;;;;14.52;9.73;;;;;;;-140.79;100.00;63287.88;4967432;28;20026;-71
2021/08/01 03:30:12;;;;;;;14.48;8.98;;;;;;;-140.79;100.00;63287.88;4967624;28;20490;-72
2021/08/01 03:32:37;;;;;;;17.33;9.25;;;;;;;-140.79;100.00;63287.88;4967090;28;20042;-72
2021/08/01 03:35:03;;;;;;;12.82;8.32;;;;;;;-140.79;100.00;63287.88;4967898;28;20034;-72
2021/08/01 03:37:29;;;;;;;13.65;9.07;;;;;;;-140.79;100.00;63287.88;4967670;28;20094;-71
2021/08/01 03:39:54;;;;;;;14.40;8.60;;;;;;;-140.79;100.00;63287.88;4968251;28;20038;-71
2021/08/01 03:42:20;;;;;;;13.90;8.50;;;;;;;-140.79;100.00;63287.88;4968324;28;20449;-72
2021/08/01 03:44:45;;;;;;;12.63;8.50;;;;;;;-140.79;100.00;63287.88;4968292;28;20466;-72
2021/08/01 03:47:11;;;;;;;14.48;8.25;;;;;;;-140.79;100.00;63287.88;4948897;28;20808;-72
2021/08/01 03:49:36;;;;;;;14.23;9.10;;;;;;;-140.79;100.00;63287.88;4948159;29;20045;-72
2021/08/01 03:52:02;;;;;;;13.52;9.05;;;;;;;-140.79;100.00;63287.88;4961865;28;20031;-72
2021/08/01 03:54:27;;;;;;;12.80;8.60;;;;;;;-140.79;100.00;63287.88;4950053;28;20082;-72
2021/08/01 03:56:53;;;;;;;16.00;9.10;;;;;;;-140.79;100.00;63287.88;4947333;29;20039;-72
2021/08/01 03:59:18;;;;;;;13.43;8.65;;;;;;;-140.79;100.00;63287.88;4941932;28;20105;-72
2021/08/01 04:01:44;;;;;;;15.52;8.65;;;;;;;-140.79;100.00;63287.88;4966372;28;20261;-72
2021/08/01 04:04:10;;;;;;;12.68;9.02;;;;;;;-140.79;100.00;63287.88;4967053;28;20730;-72
2021/08/01 04:06:35;;;;;;;13.07;8.15;;;;;;;-140.79;100.00;63287.88;4967209;28;20413;-71
2021/08/01 04:09:01;;;;;;;12.18;8.77;;;;;;;-140.79;100.00;63287.88;4967967;28;20040;-72
2021/08/01 04:11:26;;;;;;;15.23;9.32;;;;;;;-140.79;100.00;63287.88;4967943;28;20084;-72
2021/08/01 04:13:52;;;;;;;12.60;9.23;;;;;;;-140.79;100.00;63287.88;4967694;28;20034;-71
2021/08/01 04:16:17;;;;;;;15.48;8.85;;;;;;;-140.79;100.00;63287.88;4966600;28;20066;-72
2021/08/01 04:18:43;;;;;;;16.58;9.20;;;;;;;-140.79;100.00;63287.88;4966764;28;20037;-72
2021/08/01 04:21:09;;;;;;;16.05;8.73;;;;;;;-140.79;100.00;63287.88;4967485;28;20023;-71
2021/08/01 04:23:35;;;;;;;17.02;9.13;;;;;;;-140.79;100.00;63287.88;4966232;28;20037;-71
2021/08/01 04:26:01;;;;;;;13.40;9.25;;;;;;;-140.79;100.00;63287.88;4967439;28;20043;-72
2021/08/01 04:28:26;;;;;;;16.52;10.15;;;;;;;-140.79;100.00;63287.88;4966271;28;20509;-71
2021/08/01 04:30:51;;;;;;;17.98;9.75;;;;;;;-140.79;100.00;63287.88;4949282;28;20042;-72
2021/08/01 04:33:17;;;;;;;17.35;10.35;;;;;;;-140.79;100.00;63287.88;4966913;28;20045;-71
2021/08/01 04:35:42;;;;;;;15.35;10.25;;;;;;;-140.79;100.00;63287.88;4967691;28;20027;-72
2021/08/01 04:38:08;;;;;;;15.32;10.25;;;;;;;-140.79;100.00;63287.88;4965839;28;20482;-72
2021/08/01 04:40:33;;;;;;;15.40;10.30;;;;;;;-140.79;100.00;63287.88;4967336;28;20626;-72
2021/08/01 04:42:58;;;;;;;15.35;10.00;;;;;;;-140.79;100.00;63287.88;4965867;28;20418;-72
2021/08/01 04:45:24;;;;;;;17.98;10.70;;;;;;;-140.79;100.00;63287.88;4967455;28;20462;-72
2021/08/01 04:47:49;;;;;;;15.85;10.38;;;;;;;-140.79;100.00;63287.88;4966421;28;20487;-72
2021/08/01 04:50:15;;;;;;;19.25;11.05;;;;;;;-140.79;100.00;63287.88;4967260;28;20042;-71
2021/08/01 04:52:41;;;;;;;14.73;11.25;;;;;;;-140.79;100.00;63287.88;4959567;28;20031;-72
2021/08/01 04:55:07;;;;;;;18.90;11.15;;;;;;;-140.79;100.00;63287.88;4947912;29;20035;-72
2021/08/01 04:57:32;;;;;;;15.75;10.77;;;;;;;-140.79;100.00;63287.88;4946536;29;20036;-70
2021/08/01 04:59:58;;;;;;;15.05;10.05;;;;;;;-140.79;100.00;63287.88;4947863;29;20031;-72
2021/08/01 05:02:23;;;;;;;16.00;10.50;;;;;;;-140.79;100.00;63287.88;4962437;28;20053;-72
2021/08/01 05:04:49;;;;;;;16.85;10.20;;;;;;;-140.79;100.00;63287.88;4967002;28;20073;-72
2021/08/01 05:07:14;;;;;;;17.65;10.98;;;;;;;-140.79;100.00;63287.88;4966209;28;20085;-72
2021/08/01 05:09:40;;;;;;;17.10;10.43;;;;;;;-140.79;100.00;63287.88;4966156;28;20037;-72
2021/08/01 05:12:05;;;;;;;15.65;9.90;;;;;;;-140.79;100.00;63287.88;4967279;28;20564;-72
2021/08/01 05:14:31;;;;;;;13.95;10.10;;;;;;;-140.79;100.00;63287.88;4967084;28;20195;-72
2021/08/01 05:16:57;;;;;;;14.25;9.48;;;;;;;-140.79;100.00;63287.88;4948801;28;20027;-72
2021/08/01 05:19:22;;;;;;;15.80;9.40;;;;;;;-140.79;100.00;63287.88;4967205;28;20474;-72
2021/08/01 05:21:48;;;;;;;15.18;8.90;;;;;;;-140.79;100.00;63287.88;4966342;28;20494;-72
2021/08/01 05:24:13;;;;;;;16.40;9.07;;;;;;;-140.79;100.00;63287.88;4966380;28;20035;-71
2021/08/01 05:26:38;;;;;;;16.38;10.13;;;;;;;-140.79;100.00;63287.88;4947869;28;20081;-72
2021/08/01 05:29:06;;;;;;;14.88;9.35;;;;;;;-140.79;100.00;63287.88;4967029;28;20034;-72
2021/08/01 05:31:31;;;;;;;17.35;9.27;;;;;;;-140.79;100.00;63287.88;4965562;28;20164;-72
2021/08/01 05:33:57;;;;;;;14.82;10.00;;;;;;;-140.79;100.00;63287.88;4966882;28;20065;-72
2021/08/01 05:36:22;;;;;;;13.48;8.88;;;;;;;-140.79;100.00;63287.88;4966102;28;20034;-72
2021/08/01 05:38:48;;;;;;;14.88;9.88;;;;;;;-140.79;100.00;63287.88;4967131;28;20033;-72
2021/08/01 05:41:17;;;;;;;16.65;10.50;;;;;;;-140.79;100.00;63287.88;4967061;28;20485;-72
2021/08/01 05:43:42;;;;;;;16.83;11.40;;;;;;;-140.79;100.00;63287.88;4969103;28;20030;-73
2021/08/01 05:46:11;;;;;;;20.48;12.25;;;;;;;-140.79;100.00;63287.88;4971535;28;20031;-77
2021/08/01 05:48:37;;;;;;;20.52;12.93;;;;;;;-140.79;100.00;63287.88;4969881;28;20107;-73
2021/08/01 05:51:06;;;;;;;21.05;13.23;;;;;;;-140.79;100.00;63287.88;4969192;28;20513;-72
2021/08/01 05:53:31;;;;;;;20.85;13.82;;;;;;;-140.79;100.00;63287.88;4944108;28;20027;-75
2021/08/01 05:55:57;;;;;;;19.13;13.32;;;;;;;-140.79;100.00;63287.88;4969804;28;20033;-74
2021/08/01 05:58:22;;;;;;;18.73;11.10;;;;;;;-140.79;100.00;63287.88;4965152;28;20089;-76
2021/08/01 06:00:48;;;;;;;16.02;11.10;;;;;;;-140.79;100.00;63287.88;4969316;28;20029;-76
2021/08/01 06:03:13;;;;;;;17.45;10.75;;;;;;;-140.79;100.00;63287.88;4967346;28;20054;-75
2021/08/01 06:05:39;;;;;;;16.35;10.93;;;;;;;-140.79;100.00;63287.88;4962770;28;20042;-72
2021/08/01 06:08:04;;;;;;;16.40;10.00;;;;;;;-140.79;100.00;63287.88;4968789;28;20082;-82
2021/08/01 06:10:29;;;;;;;20.38;13.07;;;;;;;-140.79;100.00;63287.88;4962562;28;20034;-75
2021/08/01 06:12:55;;;;;;;20.38;12.13;;;;;;;-140.79;100.00;63287.88;4969052;28;20026;-74
2021/08/01 06:15:20;;;;;;;21.27;12.82;;;;;;;-140.79;100.00;63287.88;4969420;28;20098;-75
2021/08/01 06:17:46;;;;;;;17.40;11.02;;;;;;;-140.79;100.00;63287.88;4969364;28;20069;-75
2021/08/01 06:20:12;;;;;;;20.42;12.18;;;;;;;-140.79;100.00;63287.88;4968940;28;20023;-78
2021/08/01 06:22:37;;;;;;;19.27;11.75;;;;;;;-140.79;100.00;63287.88;4967730;28;20026;-74
2021/08/01 06:25:03;;;;;;;19.50;12.52;;;;;;;-140.79;100.00;63287.88;4968426;28;20026;-74
2021/08/01 06:27:29;;;;;;;18.92;12.07;;;;;;;-140.79;100.00;63287.88;4968505;28;20030;-73
2021/08/01 06:29:54;;;;;;;16.33;12.43;;;;;;;-140.79;100.00;63287.88;4969161;28;20504;-72
2021/08/01 06:32:20;;;;;;;20.05;11.90;;;;;;;-140.79;100.00;63287.88;4954675;28;20038;-74
2021/08/01 06:34:45;;;;;;;19.05;11.48;;;;;;;-140.79;100.00;63287.88;4952244;28;20038;-71
2021/08/01 06:37:11;;;;;;;14.00;11.52;;;;;;;-140.79;100.00;63287.88;4954508;28;20030;-71
2021/08/01 06:39:45;;;;;;;17.98;10.57;;;;;;;-140.79;100.00;63287.88;4963953;28;20527;-70
2021/08/01 06:42:10;;;;;;;18.88;10.77;;;;;;;-140.79;100.00;63287.88;4968023;28;20418;-70
2021/08/01 06:44:36;;;;;;;14.68;10.35;;;;;;;-140.79;100.00;63287.88;4965768;28;20035;-71
2021/08/01 06:47:01;;;;;;;16.45;10.70;;;;;;;-140.79;100.00;63287.88;4950385;28;20019;-71
2021/08/01 06:49:27;;;;;;;17.35;10.60;;;;;;;-140.79;100.00;63287.88;4966439;28;20019;-71
2021/08/01 06:51:52;;;;;;;13.77;10.38;;;;;;;-140.79;100.00;63287.88;4967735;28;20105;-71
2021/08/01 06:54:18;;;;;;;16.88;10.63;;;;;;;-140.79;100.00;63287.88;4963758;28;20030;-70
2021/08/01 06:56:43;;;;;;;17.80;9.45;;;;;;;-140.79;100.00;63287.88;4964041;28;20030;-70
2021/08/01 06:59:09;;;;;;;13.30;9.30;;;;;;;-140.79;100.00;63287.88;4961524;28;20034;-71
2021/08/01 07:01:37;;;;;;;13.68;9.70;;;;;;;-140.79;100.00;63287.88;4964958;28;20030;-71
2021/08/01 07:04:03;;;;;;;16.92;9.38;;;;;;;-140.79;100.00;63287.88;4960185;28;20058;-71
2021/08/01 07:06:28;;;;;;;14.70;8.90;;;;;;;-140.79;100.00;63287.88;4964500;28;20449;-71
2021/08/01 07:08:54;;;;;;;16.58;8.60;;;;;;;-140.79;100.00;63287.88;4965659;28;20022;-71
2021/08/01 07:11:19;;;;;;;13.82;8.65;;;;;;;-140.79;100.00;63287.88;4950519;28;20023;-70
2021/08/01 07:13:45;;;;;;;12.90;9.40;;;;;;;-140.79;100.00;63287.88;4960318;28;20023;-69
2021/08/01 07:16:11;;;;;;;15.05;8.95;;;;;;;-140.79;100.00;63287.88;4968027;28;20823;-69
2021/08/01 07:18:36;;;;;;;14.52;9.57;;;;;;;-140.79;100.00;63287.88;4951101;28;20027;-69
2021/08/01 07:21:02;;;;;;;17.05;9.40;;;;;;;-140.79;100.00;63287.88;4950714;28;20027;-70
2021/08/01 07:23:27;;;;;;;17.27;9.70;;;;;;;-140.79;100.00;63287.88;4952879;28;20027;-70
2021/08/01 07:26:22;;;;;;;12.02;8.55;;;;;;;-140.79;100.00;63287.88;4950719;28;20019;-70
2021/08/01 07:28:47;;;;;;;17.45;10.38;;;;;;;-140.79;100.00;63287.88;4946096;28;20102;-69
2021/08/01 07:31:13;;;;;;;16.13;10.27;;;;;;;-140.79;100.00;63287.88;4950920;28;20043;-71
2021/08/01 07:33:38;;;;;;;19.92;10.32;;;;;;;-140.79;100.00;63287.88;4950559;28;20035;-71
2021/08/01 07:36:04;;;;;;;15.55;10.68;;;;;;;-140.79;100.00;63287.88;4959369;28;20030;-71
2021/08/01 07:38:29;;;;;;;13.32;9.32;;;;;;;-140.79;100.00;63287.88;4967515;28;20421;-71
2021/08/01 07:40:55;;;;;;;18.30;9.20;;;;;;;-140.79;100.00;63287.88;4965419;28;20034;-73
2021/08/01 07:43:20;;;;;;;13.88;9.77;;;;;;;-140.79;100.00;63287.88;4956605;28;20652;-71
2021/08/01 07:45:46;;;;;;;16.88;10.43;;;;;;;-140.79;100.00;63287.88;4960662;28;20600;-71
2021/08/01 07:48:11;;;;;;;14.90;9.65;;;;;;;-140.79;100.00;63287.88;4953055;28;20548;-70
2021/08/01 07:50:37;;;;;;;13.60;8.68;;;;;;;-140.79;100.00;63287.88;4966951;28;20058;-69
2021/08/01 07:53:02;;;;;;;12.75;8.85;;;;;;;-140.79;100.00;63287.88;4967527;28;20080;-70
2021/08/01 07:55:28;;;;;;;12.30;7.72;;;;;;;-140.79;100.00;63287.88;4965235;28;20113;-69
2021/08/01 07:57:55;;;;;;;18.40;8.98;;;;;;;-140.79;100.00;63287.88;4950017;28;20095;-69
2021/08/01 08:00:21;;;;;;;13.13;9.07;;;;;;;-140.79;100.00;63287.88;4965311;28;20039;-71
2021/08/01 08:02:46;;;;;;;14.60;9.07;;;;;;;-140.79;100.00;63287.88;4967320;28;20038;-71
2021/08/01 08:05:12;;;;;;;10.82;7.82;;;;;;;-140.79;100.00;63287.88;4955620;28;20082;-70
2021/08/01 08:07:37;;;;;;;13.30;8.52;;;;;;;-140.79;100.00;63287.88;4961289;28;20030;-72
2021/08/01 08:10:03;;;;;;;13.10;8.82;;;;;;;-140.79;100.00;63287.88;4958399;28;20027;-70
2021/08/01 08:12:29;;;;;;;11.88;8.73;;;;;;;-140.79;100.00;63287.88;4959098;28;20023;-70
2021/08/01 08:14:54;;;;;;;11.85;8.23;;;;;;;-140.79;100.00;63287.88;4953611;28;20089;-70
2021/08/01 08:17:20;;;;;;;16.88;9.05;;;;;;;-140.79;100.00;63287.88;4967435;28;20082;-70
2021/08/01 08:19:45;;;;;;;14.98;8.40;;;;;;;-140.79;100.00;63287.88;4967059;28;20026;-69
2021/08/01 08:22:11;;;;;;;11.23;7.90;;;;;;;-140.79;100.00;63287.88;4967080;28;20039;-70
2021/08/01 08:24:36;;;;;;;13.07;7.93;;;;;;;-140.79;100.00;63287.88;4966971;28;20023;-70
2021/08/01 08:27:02;;;;;;;11.65;7.57;;;;;;;-140.79;100.00;63287.88;4966193;28;20497;-69
2021/08/01 08:29:28;;;;;;;14.45;8.30;;;;;;;-140.79;100.00;63287.88;4966778;28;20034;-69
2021/08/01 08:31:54;;;;;;;12.05;8.07;;;;;;;-140.79;100.00;63287.88;4933455;28;20504;-70
2021/08/01 08:34:20;;;;;;;12.95;8.57;;;;;;;-140.79;100.00;63287.88;4963146;28;20045;-69
2021/08/01 08:36:49;;;;;;;10.00;8.23;;;;;;;-140.79;100.00;63287.88;4948604;28;20525;-72
2021/08/01 08:39:15;;;;;;;;;;;;;;;-140.79;100.00;63287.88;4950764;28;20065;-72
2021/08/01 08:41:41;;;;;;;10.13;7.25;;;;;;;-140.79;100.00;63287.88;4959396;28;19911;-70
2021/08/01 08:44:06;;;;;;;11.05;7.88;;;;;;;-140.79;100.00;63287.88;4966374;28;20678;-70
2021/08/01 08:46:35;;;;;;;9.70;7.30;;;;;;;-140.79;100.00;63287.88;4962591;28;20042;-70
2021/08/01 08:49:05;;;;;;;10.52;7.72;;;;;;;-140.79;100.00;63287.88;4934441;29;20031;-71
2021/08/01 08:51:30;;;;;;;;;;;;;;;-140.79;100.00;63287.88;4944657;28;20526;-71
2021/08/01 08:53:56;;;;;;;10.02;7.30;;;;;;;-140.79;100.00;63287.88;4962567;28;20016;-71
2021/08/01 08:56:21;;;;;;;9.95;7.03;;;;;;;-140.79;100.00;63287.88;4933819;28;20513;-78
2021/08/01 08:58:49;;;;;;;10.55;7.38;;;;;;;-140.79;100.00;63287.88;4963393;28;20153;-71
2021/08/01 09:01:15;;;;;;;11.02;7.05;;;;;;;-140.79;100.00;63287.88;4949486;28;20498;-70
2021/08/01 09:03:40;;;;;;;10.77;7.40;;;;;;;-140.79;100.00;63287.88;4953107;28;20053;-70
2021/08/01 09:06:06;;;;;;;9.02;6.72;;;;;;;-140.79;100.00;63287.88;4981475;28;20038;-70
2021/08/01 09:08:31;;;;;;;10.98;6.72;;;;;;;-140.79;100.00;63287.88;4966778;28;20014;-71
2021/08/01 09:10:58;;;;;;;9.52;7.03;;;;;;;-140.79;100.00;63287.88;4967068;28;20045;-70
2021/08/01 09:13:42;;;;;;;11.65;6.93;;;;;;;-140.79;100.00;63287.88;4965843;28;20101;-71
2021/08/01 09:16:08;;;;;;;8.43;6.70;;;;;;;-140.79;100.00;63287.88;4965418;28;20570;-70
2021/08/01 09:18:34;;;;;;;8.20;6.78;;;;;;;-140.79;100.00;63287.88;4969557;28;20022;-71
2021/08/01 09:20:59;;;;;;;8.05;6.78;;;;;;;-140.79;100.00;63287.88;4970030;28;20123;-72
2021/08/01 09:23:25;;;;;;;7.93;6.40;;;;;;;-140.79;100.00;63287.88;4970565;28;20027;-72
2021/08/01 09:25:58;;;;;;;7.50;6.68;;;;;;;-140.79;100.00;63287.88;4970562;28;20026;-71
2021/08/01 09:28:24;;;;;;;8.35;6.68;;;;;;;-140.79;100.00;63287.88;4969964;28;20057;-71
2021/08/01 09:30:52;;;;;;;7.80;6.30;;;;;;;-140.79;100.00;63287.88;4969321;28;20034;-71
2021/08/01 09:33:34;;;;;;;8.63;6.78;;;;;;;-140.79;100.00;63287.88;4969879;28;20038;-71
2021/08/01 09:36:24;;;;;;;8.57;6.18;;;;;;;-140.79;100.00;63287.88;4969305;28;20039;-71
2021/08/01 09:38:49;;;;;;;7.40;6.35;;;;;;;-140.79;100.00;63287.88;4957443;28;20528;-70
2021/08/01 09:41:19;;;;;;;7.78;6.13;;;;;;;-140.79;100.00;63287.88;4954168;28;20031;-71
2021/08/01 09:43:57;;;;;;;6.68;5.75;;;;;;;-140.79;100.00;63287.88;4957289;28;20019;-71
2021/08/01 09:46:43;;;;;;;6.78;5.75;;;;;;;-140.79;100.00;63287.88;4961748;28;20691;-71
2021/08/01 09:49:12;;;;;;;7.22;5.93;;;;;;;-140.79;100.00;63287.88;4956666;28;20102;-70
2021/08/01 09:51:42;;;;;;;7.07;5.95;;;;;;;-140.79;100.00;63287.88;4954130;28;20043;-70
2021/08/01 09:54:08;;;;;;;8.32;6.53;;;;;;;-140.79;100.00;63287.88;4959941;28;20541;-71
2021/08/01 09:56:34;;;;;;;7.28;6.38;;;;;;;-140.79;100.00;63287.88;4953973;28;20082;-71
2021/08/01 09:59:02;;;;;;;7.68;5.78;;;;;;;-140.79;100.00;63287.88;4963596;28;20036;-71
2021/08/01 10:01:27;;;;;;;6.78;5.60;;;;;;;-140.79;100.00;63287.88;4954085;28;20027;-70
2021/08/01 10:03:53;;;;;;;7.28;6.30;;;;;;;-140.79;100.00;63287.88;4956170;28;20043;-70
2021/08/01 10:06:22;;;;;;;7.85;5.97;;;;;;;-140.79;100.00;63287.88;4952409;28;20022;-71
2021/08/01 10:08:52;;;;;;;8.15;6.30;;;;;;;-140.79;100.00;63287.88;4960085;28;20105;-72
2021/08/01 10:11:21;;;;;;;7.28;5.53;;;;;;;-140.79;100.00;63287.88;4955510;28;20506;-72
2021/08/01 10:13:47;;;;;;;;;;;;;;;-140.79;100.00;63287.88;4960880;28;20035;-72
2021/08/01 10:16:13;;;;;;;8.38;5.72;;;;;;;-140.79;100.00;63287.88;4969407;28;19914;-71
2021/08/01 10:18:40;;;;;;;7.88;6.25;;;;;;;-140.79;100.00;63287.88;4952639;28;20569;-72
2021/08/01 10:21:06;;;;;;;7.28;5.97;;;;;;;-140.79;100.00;63287.88;4952080;28;20039;-72
2021/08/01 10:23:35;;;;;;;7.30;5.55;;;;;;;-140.79;100.00;63287.88;4969910;28;20300;-71
2021/08/01 10:26:01;;;;;;;6.10;5.50;;;;;;;-140.79;100.00;63287.88;4971426;28;20394;-72
2021/08/01 10:28:27;;;;;;;6.85;5.50;;;;;;;-140.79;100.00;63287.88;4972613;28;20600;-74
2021/08/01 10:30:52;;;;;;;7.32;5.63;;;;;;;-140.79;100.00;63287.88;4962302;28;20026;-74
2021/08/01 10:33:22;;;;;;;6.43;5.53;;;;;;;-140.79;100.00;63287.88;4952378;28;20034;-73
2021/08/01 10:35:54;;;;;;;6.65;5.70;;;;;;;-140.79;100.00;63287.88;4969401;28;20030;-73
2021/08/01 10:38:20;;;;;;;6.80;5.22;;;;;;;-140.79;100.00;63287.88;4952412;28;20130;-72
2021/08/01 10:40:51;;;;;;;6.53;5.40;;;;;;;-140.79;100.00;63287.88;4952305;28;20046;-72
2021/08/01 10:43:17;;;;;;;6.65;5.60;;;;;;;-140.79;100.00;63287.88;4956781;28;20617;-73
2021/08/01 10:45:43;;;;;;;5.55;4.88;;;;;;;-140.79;100.00;63287.88;4950274;28;20028;-73
2021/08/01 10:48:08;;;;;;;7.70;5.72;;;;;;;-140.79;100.00;63287.88;4951600;28;20110;-73
2021/08/01 10:50:33;;;;;;;6.15;4.95;;;;;;;-140.79;100.00;63287.88;4934455;28;20049;-71
2021/08/01 10:53:21;;;;;;;6.28;5.40;;;;;;;-140.79;100.00;63287.88;4934444;28;20106;-71
2021/08/01 10:55:48;;;;;;;5.95;5.32;;;;;;;-140.79;100.00;63287.88;4952561;28;20038;-71
2021/08/01 10:58:14;;;;;;;6.32;5.70;;;;;;;-140.79;100.00;63287.88;4950902;28;20028;-71
2021/08/01 11:00:55;;;;;;;7.55;5.57;;;;;;;-140.79;100.00;63287.88;4944927;28;20051;-73